createdAt,value
2017-12-24T00:00:20.055Z,71.00
2017-12-24T00:02:48.135Z,70.70
2017-12-24T00:05:16.415Z,71.00
2017-12-24T00:07:44.676Z,71.30
2017-12-24T00:10:12.775Z,72.30
2017-12-24T00:12:41.637Z,71.60
2017-12-24T00:15:09.707Z,71.50
2017-12-24T00:17:37.802Z,71.60
2017-12-24T00:20:06.200Z,72.10
2017-12-24T00:22:35.379Z,72.20
2017-12-24T00:25:03.860Z,72.20
2017-12-24T00:27:32.300Z,72.60
2017-12-24T00:30:00.920Z,72.80
2017-12-24T00:32:30.103Z,72.70
2017-12-24T00:34:58.480Z,72.70
2017-12-24T00:37:27.606Z,72.60
2017-12-24T00:39:56.579Z,73.00
2017-12-24T00:42:24.840Z,72.80
2017-12-24T00:44:53.328Z,73.60
2017-12-24T00:47:21.694Z,73.00
2017-12-24T00:49:49.873Z,73.00
2017-12-24T00:52:18.250Z,73.10
2017-12-24T00:54:46.370Z,72.90
2017-12-24T00:57:14.597Z,73.20
2017-12-24T00:59:43.047Z,73.10
2017-12-24T01:02:11.302Z,73.20
2017-12-24T01:04:39.293Z,73.40
2017-12-24T01:07:07.387Z,73.30
2017-12-24T01:09:35.354Z,73.20
2017-12-24T01:12:03.518Z,73.20
2017-12-24T01:14:31.788Z,73.40
2017-12-24T01:17:00.093Z,73.70
2017-12-24T01:19:28.949Z,73.50
2017-12-24T01:21:57.470Z,73.50
2017-12-24T01:24:25.850Z,73.10
2017-12-24T01:26:55.149Z,72.50
2017-12-24T01:29:24.333Z,72.70
2017-12-24T01:31:53.074Z,72.70
2017-12-24T01:34:21.332Z,72.80
2017-12-24T01:36:49.573Z,72.60
2017-12-24T01:39:17.632Z,72.60
2017-12-24T01:41:45.812Z,72.50
2017-12-24T01:44:14.093Z,72.50
2017-12-24T01:46:42.412Z,72.40
2017-12-24T01:49:10.993Z,72.50
2017-12-24T01:51:39.658Z,71.80
2017-12-24T01:54:08.712Z,72.00
2017-12-24T01:56:37.454Z,72.00
2017-12-24T01:59:06.112Z,71.90
2017-12-24T02:01:35.632Z,72.20
2017-12-24T02:04:03.893Z,72.20
2017-12-24T02:06:33.035Z,72.30
2017-12-24T02:09:01.253Z,72.30
2017-12-24T02:11:29.532Z,72.40
2017-12-24T02:13:57.793Z,72.60
2017-12-24T02:16:25.953Z,73.20
2017-12-24T02:18:54.036Z,72.40
2017-12-24T02:21:22.433Z,72.50
2017-12-24T02:23:51.413Z,72.70
2017-12-24T02:26:20.372Z,72.70
2017-12-24T02:28:48.872Z,72.70
2017-12-24T02:31:17.053Z,72.60
2017-12-24T02:33:45.333Z,72.50
2017-12-24T02:36:13.693Z,72.60
2017-12-24T02:38:41.732Z,72.60
2017-12-24T02:41:09.853Z,72.10
2017-12-24T02:43:38.832Z,72.10
2017-12-24T02:46:07.112Z,72.20
2017-12-24T02:48:35.293Z,72.20
2017-12-24T02:51:03.353Z,71.90
2017-12-24T02:53:31.532Z,72.70
2017-12-24T02:55:59.614Z,72.00
2017-12-24T02:58:28.573Z,72.10
2017-12-24T03:00:56.555Z,72.00
2017-12-24T03:03:24.873Z,72.10
2017-12-24T03:05:54.152Z,72.20
2017-12-24T03:08:23.013Z,72.20
2017-12-24T03:10:51.232Z,72.20
2017-12-24T03:13:20.503Z,71.90
2017-12-24T03:15:48.972Z,71.90
2017-12-24T03:18:17.372Z,72.10
2017-12-24T03:20:46.452Z,72.10
2017-12-24T03:23:14.832Z,72.00
2017-12-24T03:25:42.933Z,72.00
2017-12-24T03:28:12.192Z,71.50
2017-12-24T03:30:40.453Z,71.50
2017-12-24T03:33:09.052Z,71.20
2017-12-24T03:35:37.333Z,71.20
2017-12-24T03:38:05.512Z,71.60
2017-12-24T03:40:33.572Z,71.60
2017-12-24T03:43:01.673Z,71.60
2017-12-24T03:45:30.632Z,71.50
2017-12-24T03:47:58.712Z,71.40
2017-12-24T03:50:26.773Z,71.50
2017-12-24T03:52:55.012Z,71.20
2017-12-24T03:55:23.093Z,71.00
2017-12-24T03:57:51.312Z,70.80
2017-12-24T04:00:20.392Z,71.50
2017-12-24T04:02:48.473Z,71.10
2017-12-24T04:05:16.632Z,71.00
2017-12-24T04:07:44.912Z,70.70
2017-12-24T04:10:12.973Z,70.80
2017-12-24T04:12:41.253Z,70.60
2017-12-24T04:15:09.532Z,70.20
2017-12-24T04:17:37.673Z,69.90
2017-12-24T04:20:05.893Z,70.00
2017-12-24T04:22:35.093Z,70.10
2017-12-24T04:25:04.273Z,70.30
2017-12-24T04:27:32.873Z,70.30
2017-12-24T04:30:02.153Z,70.00
2017-12-24T04:32:30.413Z,70.00
2017-12-24T04:34:58.893Z,70.00
2017-12-24T04:37:27.393Z,70.20
2017-12-24T04:39:55.633Z,70.00
2017-12-24T04:42:23.676Z,70.40
2017-12-24T04:44:52.035Z,70.30
2017-12-24T04:47:21.033Z,70.60
2017-12-24T04:49:50.098Z,70.50
2017-12-24T04:52:18.473Z,70.50
2017-12-24T04:54:46.753Z,70.30
2017-12-24T04:57:14.835Z,70.30
2017-12-24T04:59:43.872Z,70.60
2017-12-24T05:02:12.173Z,70.50
2017-12-24T05:04:40.573Z,71.00
2017-12-24T05:07:08.913Z,71.20
2017-12-24T05:09:36.973Z,71.50
2017-12-24T05:12:05.292Z,71.80
2017-12-24T05:14:33.672Z,71.80
2017-12-24T05:17:03.233Z,71.10
2017-12-24T05:19:31.553Z,71.20
2017-12-24T05:21:59.732Z,71.50
2017-12-24T05:24:27.893Z,71.10
2017-12-24T05:26:56.072Z,71.70
2017-12-24T05:29:24.233Z,71.10
2017-12-24T05:31:52.612Z,71.50
2017-12-24T05:34:20.893Z,71.50
2017-12-24T05:36:48.972Z,70.40
2017-12-24T05:39:17.333Z,70.50
2017-12-24T05:41:45.513Z,70.60
2017-12-24T05:44:14.013Z,70.70
2017-12-24T05:46:42.792Z,71.50
2017-12-24T05:49:11.373Z,71.40
2017-12-24T05:51:39.733Z,71.40
2017-12-24T05:54:08.032Z,71.60
2017-12-24T05:56:36.193Z,71.30
2017-12-24T05:59:04.473Z,72.10
2017-12-24T06:01:32.635Z,71.50
2017-12-24T06:04:01.016Z,71.60
2017-12-24T06:06:29.076Z,71.60
2017-12-24T06:08:57.655Z,71.60
2017-12-24T06:11:26.156Z,71.50
2017-12-24T06:13:54.803Z,71.40
2017-12-24T06:16:23.316Z,71.60
2017-12-24T06:18:51.716Z,71.60
2017-12-24T06:21:20.816Z,71.60
2017-12-24T06:23:49.976Z,71.40
2017-12-24T06:26:18.256Z,71.40
2017-12-24T06:28:46.537Z,71.40
2017-12-24T06:31:14.955Z,71.60
2017-12-24T06:33:43.178Z,71.40
2017-12-24T06:36:11.555Z,71.30
2017-12-24T06:38:39.796Z,71.10
2017-12-24T06:41:07.955Z,71.20
2017-12-24T06:43:36.116Z,71.50
2017-12-24T06:46:05.116Z,71.10
2017-12-24T06:48:33.356Z,71.10
2017-12-24T06:51:03.176Z,71.50
2017-12-24T06:53:31.337Z,71.50
2017-12-24T06:56:01.056Z,71.70
2017-12-24T06:58:29.235Z,71.60
2017-12-24T07:00:58.096Z,71.90
2017-12-24T07:03:26.076Z,71.90
2017-12-24T07:05:54.138Z,72.00
2017-12-24T07:08:22.326Z,72.20
2017-12-24T07:10:50.500Z,72.20
2017-12-24T07:13:18.766Z,72.30
2017-12-24T07:15:46.926Z,72.20
2017-12-24T07:18:15.246Z,72.20
2017-12-24T07:20:44.205Z,71.80
2017-12-24T07:23:12.286Z,71.80
2017-12-24T07:25:40.585Z,72.00
2017-12-24T07:28:09.813Z,71.90
2017-12-24T07:30:38.146Z,71.90
2017-12-24T07:33:07.626Z,71.80
2017-12-24T07:35:36.606Z,71.80
2017-12-24T07:38:05.046Z,71.50
2017-12-24T07:40:33.186Z,71.80
2017-12-24T07:43:01.466Z,71.70
2017-12-24T07:45:30.527Z,71.10
2017-12-24T07:47:59.246Z,71.10
2017-12-24T07:50:28.206Z,71.40
2017-12-24T07:52:56.486Z,71.30
2017-12-24T07:55:25.086Z,71.50
2017-12-24T07:57:53.186Z,71.50
2017-12-24T08:00:22.346Z,71.60
2017-12-24T08:02:50.606Z,71.60
2017-12-24T08:05:18.826Z,71.60
2017-12-24T08:07:48.006Z,71.80
2017-12-24T08:10:16.365Z,71.80
2017-12-24T08:12:44.545Z,71.90
2017-12-24T08:15:12.626Z,72.00
2017-12-24T08:17:41.006Z,72.20
2017-12-24T08:20:09.166Z,72.20
2017-12-24T08:22:37.946Z,72.30
2017-12-24T08:25:06.226Z,72.40
2017-12-24T08:27:34.306Z,72.30
2017-12-24T08:30:02.446Z,72.20
2017-12-24T08:32:30.746Z,72.40
2017-12-24T08:34:58.906Z,72.30
2017-12-24T08:37:27.066Z,72.10
2017-12-24T08:39:55.365Z,72.10
2017-12-24T08:42:23.966Z,71.80
2017-12-24T08:44:52.546Z,72.00
2017-12-24T08:47:20.846Z,71.70
2017-12-24T08:49:49.206Z,71.50
2017-12-24T08:52:18.608Z,70.90
2017-12-24T08:54:47.786Z,71.20
2017-12-24T08:57:16.167Z,71.20
2017-12-24T08:59:44.226Z,71.20
2017-12-24T09:02:12.506Z,71.20
2017-12-24T09:04:40.846Z,71.10
2017-12-24T09:07:09.287Z,71.00
2017-12-24T09:09:38.466Z,70.60
2017-12-24T09:12:06.866Z,70.60
2017-12-24T09:14:36.026Z,70.50
2017-12-24T09:17:04.206Z,70.40
2017-12-24T09:19:32.279Z,70.70
2017-12-24T09:22:00.349Z,70.80
2017-12-24T09:24:28.496Z,71.00
2017-12-24T09:26:56.802Z,70.90
2017-12-24T09:29:24.818Z,70.90
2017-12-24T09:31:53.158Z,71.00
2017-12-24T09:34:21.318Z,70.90
2017-12-24T09:36:49.398Z,71.80
2017-12-24T09:39:17.878Z,70.90
2017-12-24T09:41:46.018Z,71.30
2017-12-24T09:44:14.218Z,70.90
2017-12-24T09:46:42.398Z,71.10
2017-12-24T09:49:10.438Z,71.10
2017-12-24T09:51:38.726Z,71.10
2017-12-24T09:54:06.880Z,71.00
2017-12-24T09:56:35.278Z,70.90
2017-12-24T09:59:03.358Z,71.00
2017-12-24T10:01:31.638Z,71.50
2017-12-24T10:03:59.998Z,71.10
2017-12-24T10:06:28.078Z,70.20
2017-12-24T10:08:56.119Z,70.60
2017-12-24T10:11:24.078Z,70.40
2017-12-24T10:13:52.578Z,70.40
2017-12-24T10:16:21.204Z,70.30
2017-12-24T10:18:50.598Z,70.40
2017-12-24T10:21:19.778Z,69.90
2017-12-24T10:23:48.358Z,69.80
2017-12-24T10:26:16.618Z,68.80
2017-12-24T10:28:45.218Z,68.80
2017-12-24T10:31:13.798Z,68.80
2017-12-24T10:33:42.018Z,68.20
2017-12-24T10:36:10.279Z,67.60
2017-12-24T10:38:39.358Z,66.70
2017-12-24T10:41:07.502Z,66.60
2017-12-24T10:43:35.758Z,65.20
2017-12-24T10:46:03.958Z,64.00
2017-12-24T10:48:32.242Z,63.20
2017-12-24T10:51:00.578Z,63.20
2017-12-24T10:53:28.898Z,63.40
2017-12-24T10:55:57.038Z,63.10
2017-12-24T10:58:25.777Z,62.80
2017-12-24T11:00:54.917Z,62.50
2017-12-24T11:03:23.018Z,62.50
2017-12-24T11:05:51.457Z,62.60
2017-12-24T11:08:19.618Z,62.80
2017-12-24T11:10:48.062Z,62.90
2017-12-24T11:13:16.441Z,63.00
2017-12-24T11:15:45.518Z,62.70
2017-12-24T11:18:13.697Z,62.70
2017-12-24T11:20:41.757Z,62.60
2017-12-24T11:23:09.937Z,63.20
2017-12-24T11:25:38.558Z,63.10
2017-12-24T11:28:07.818Z,62.90
2017-12-24T11:30:36.258Z,62.90
2017-12-24T11:33:04.676Z,62.60
2017-12-24T11:35:32.846Z,62.40
2017-12-24T11:38:01.251Z,62.90
2017-12-24T11:40:30.111Z,63.00
2017-12-24T11:42:58.740Z,62.90
2017-12-24T11:45:28.219Z,63.40
2017-12-24T11:47:56.460Z,63.40
2017-12-24T11:50:25.060Z,63.30
2017-12-24T11:52:53.480Z,63.20
2017-12-24T11:55:22.020Z,63.40
2017-12-24T11:57:50.380Z,64.00
2017-12-24T12:00:19.099Z,63.40
2017-12-24T12:02:47.362Z,64.00
2017-12-24T12:05:15.600Z,65.00
2017-12-24T12:07:43.800Z,63.80
2017-12-24T12:10:12.001Z,63.70
2017-12-24T12:12:41.060Z,63.80
2017-12-24T12:15:09.561Z,63.80
2017-12-24T12:17:37.740Z,63.80
2017-12-24T12:20:06.120Z,64.10
2017-12-24T12:22:34.240Z,64.00
2017-12-24T12:25:02.240Z,64.20
2017-12-24T12:27:30.400Z,63.90
2017-12-24T12:29:58.800Z,63.90
2017-12-24T12:32:27.487Z,64.10
2017-12-24T12:34:55.667Z,64.20
2017-12-24T12:37:23.740Z,64.10
2017-12-24T12:39:51.920Z,63.90
2017-12-24T12:42:20.799Z,64.00
2017-12-24T12:44:48.959Z,64.00
2017-12-24T12:47:17.140Z,63.80
2017-12-24T12:49:45.320Z,63.60
2017-12-24T12:52:13.807Z,63.70
2017-12-24T12:54:42.179Z,63.70
2017-12-24T12:57:10.680Z,64.60
2017-12-24T12:59:39.940Z,64.20
2017-12-24T13:02:08.181Z,64.20
2017-12-24T13:04:36.300Z,64.30
2017-12-24T13:07:04.579Z,64.30
2017-12-24T13:09:32.800Z,64.60
2017-12-24T13:12:01.340Z,65.60
2017-12-24T13:14:29.500Z,65.40
2017-12-24T13:16:57.921Z,65.40
2017-12-24T13:19:26.140Z,65.10
2017-12-24T13:21:54.340Z,65.60
2017-12-24T13:24:23.520Z,65.50
2017-12-24T13:26:51.880Z,65.50
2017-12-24T13:29:20.162Z,65.40
2017-12-24T13:31:48.581Z,65.40
2017-12-24T13:34:17.547Z,65.40
2017-12-24T13:36:45.820Z,65.40
2017-12-24T13:39:14.100Z,65.30
2017-12-24T13:41:42.479Z,65.30
2017-12-24T13:44:10.960Z,65.50
2017-12-24T13:46:39.020Z,65.20
2017-12-24T13:49:07.400Z,65.10
2017-12-24T13:51:35.920Z,65.00
2017-12-24T13:54:03.919Z,64.70
2017-12-24T13:56:32.140Z,65.10
2017-12-24T13:59:00.400Z,65.10
2017-12-24T14:01:28.481Z,64.70
2017-12-24T14:03:56.780Z,64.70
2017-12-24T14:06:25.900Z,65.10
2017-12-24T14:08:54.223Z,65.10
2017-12-24T14:11:23.520Z,65.10
2017-12-24T14:13:52.123Z,65.70
2017-12-24T14:16:21.520Z,64.50
2017-12-24T14:18:50.700Z,64.50
2017-12-24T14:21:19.003Z,65.10
2017-12-24T14:23:48.180Z,64.40
2017-12-24T14:26:17.460Z,64.30
2017-12-24T14:28:45.860Z,64.40
2017-12-24T14:31:14.339Z,65.30
2017-12-24T14:33:42.400Z,65.60
2017-12-24T14:36:10.720Z,65.20
2017-12-24T14:38:39.879Z,65.10
2017-12-24T14:41:09.721Z,64.80
2017-12-24T14:43:38.140Z,64.80
2017-12-24T14:46:06.540Z,64.70
2017-12-24T14:48:34.702Z,64.90
2017-12-24T14:51:02.999Z,65.20
2017-12-24T14:53:31.281Z,65.40
2017-12-24T14:56:00.371Z,65.10
2017-12-24T14:58:28.600Z,64.80
2017-12-24T15:00:56.700Z,64.60
2017-12-24T15:03:25.180Z,64.80
2017-12-24T15:05:53.380Z,64.80
2017-12-24T15:08:22.459Z,64.90
2017-12-24T15:10:50.520Z,64.90
2017-12-24T15:13:18.799Z,64.70
2017-12-24T15:15:47.282Z,65.00
2017-12-24T15:18:15.880Z,64.70
2017-12-24T15:20:45.100Z,64.50
2017-12-24T15:23:13.540Z,64.40
2017-12-24T15:25:42.700Z,65.30
2017-12-24T15:28:11.440Z,65.40
2017-12-24T15:30:40.621Z,65.20
2017-12-24T15:33:08.880Z,65.20
2017-12-24T15:35:37.480Z,65.30
2017-12-24T15:38:05.980Z,65.40
2017-12-24T15:40:35.061Z,65.20
2017-12-24T15:43:03.441Z,65.20
2017-12-24T15:45:32.420Z,65.20
2017-12-24T15:48:00.640Z,64.60
2017-12-24T15:50:29.380Z,64.90
2017-12-24T15:52:57.541Z,65.10
2017-12-24T15:55:25.840Z,64.80
2017-12-24T15:57:54.820Z,65.50
2017-12-24T16:00:23.299Z,65.10
2017-12-24T16:02:51.561Z,65.20
2017-12-24T16:05:19.941Z,65.10
2017-12-24T16:07:48.241Z,65.50
2017-12-24T16:10:16.320Z,65.50
2017-12-24T16:12:45.619Z,65.10
2017-12-24T16:15:14.757Z,64.90
2017-12-24T16:17:42.838Z,64.80
2017-12-24T16:20:11.424Z,65.50
2017-12-24T16:22:39.618Z,65.10
2017-12-24T16:25:08.703Z,65.00
2017-12-24T16:27:37.100Z,65.00
2017-12-24T16:30:05.804Z,65.30
2017-12-24T16:32:35.064Z,65.30
2017-12-24T16:35:03.316Z,65.30
2017-12-24T16:37:31.636Z,65.20
2017-12-24T16:40:00.216Z,65.10
2017-12-24T16:42:28.475Z,65.10
2017-12-24T16:44:56.878Z,65.20
2017-12-24T16:47:25.136Z,64.80
2017-12-24T16:49:53.436Z,64.50
2017-12-24T16:52:22.315Z,65.00
2017-12-24T16:54:50.467Z,65.00
2017-12-24T16:57:18.575Z,64.80
2017-12-24T16:59:47.478Z,65.30
2017-12-24T17:02:15.816Z,65.30
2017-12-24T17:04:44.335Z,65.50
2017-12-24T17:07:12.575Z,65.90
2017-12-24T17:09:41.074Z,66.20
2017-12-24T17:12:10.255Z,66.10
2017-12-24T17:14:38.615Z,66.00
2017-12-24T17:17:07.095Z,66.40
2017-12-24T17:19:35.715Z,66.20
2017-12-24T17:22:05.195Z,66.40
2017-12-24T17:24:33.475Z,66.40
2017-12-24T17:27:02.135Z,66.10
2017-12-24T17:29:30.315Z,66.10
2017-12-24T17:31:58.815Z,66.50
2017-12-24T17:34:27.177Z,66.80
2017-12-24T17:36:55.555Z,66.70
2017-12-24T17:39:23.834Z,66.40
2017-12-24T17:41:52.355Z,66.20
2017-12-24T17:44:21.398Z,66.80
2017-12-24T17:46:49.415Z,66.70
2017-12-24T17:49:18.414Z,66.80
2017-12-24T17:51:46.735Z,66.80
2017-12-24T17:54:14.842Z,66.70
2017-12-24T17:56:43.915Z,66.40
2017-12-24T17:59:12.195Z,66.40
2017-12-24T18:01:40.674Z,66.60
2017-12-24T18:04:08.895Z,66.60
2017-12-24T18:06:37.135Z,66.70
2017-12-24T18:09:05.435Z,66.60
2017-12-24T18:11:33.775Z,66.70
2017-12-24T18:14:01.955Z,66.90
2017-12-24T18:16:30.676Z,66.90
2017-12-24T18:18:59.374Z,67.20
2017-12-24T18:21:27.935Z,66.40
2017-12-24T18:23:57.115Z,67.30
2017-12-24T18:26:25.395Z,67.30
2017-12-24T18:28:54.575Z,67.30
2017-12-24T18:31:23.275Z,67.30
2017-12-24T18:33:52.875Z,67.00
2017-12-24T18:36:21.255Z,66.90
2017-12-24T18:38:50.335Z,66.90
2017-12-24T18:41:18.638Z,66.80
2017-12-24T18:43:47.695Z,66.90
2017-12-24T18:46:16.035Z,66.80
2017-12-24T18:48:44.355Z,67.00
2017-12-24T18:51:12.635Z,67.10
2017-12-24T18:53:40.675Z,67.10
2017-12-24T18:56:08.984Z,67.40
2017-12-24T18:58:37.215Z,67.20
2017-12-24T19:01:05.135Z,67.30
2017-12-24T19:03:33.495Z,67.50
2017-12-24T19:06:01.656Z,67.30
2017-12-24T19:08:29.955Z,67.60
2017-12-24T19:10:58.195Z,67.60
2017-12-24T19:13:26.595Z,67.10
2017-12-24T19:15:54.795Z,67.10
2017-12-24T19:18:24.074Z,67.10
2017-12-24T19:20:52.375Z,67.10
2017-12-24T19:23:21.363Z,67.50
2017-12-24T19:25:50.376Z,67.40
2017-12-24T19:28:18.895Z,67.40
2017-12-24T19:30:47.089Z,67.40
2017-12-24T19:33:15.530Z,67.60
2017-12-24T19:35:43.530Z,67.60
2017-12-24T19:38:11.810Z,67.60
2017-12-24T19:40:40.071Z,67.70
2017-12-24T19:43:08.409Z,67.60
2017-12-24T19:45:36.710Z,67.80
2017-12-24T19:48:05.230Z,67.80
2017-12-24T19:50:35.150Z,67.70
2017-12-24T19:53:04.230Z,67.70
2017-12-24T19:55:32.392Z,67.70
2017-12-24T19:58:00.530Z,67.70
2017-12-24T20:00:28.850Z,67.90
2017-12-24T20:02:57.012Z,67.50
2017-12-24T20:05:25.414Z,67.60
2017-12-24T20:07:54.019Z,67.10
2017-12-24T20:10:22.470Z,66.60
2017-12-24T20:12:50.877Z,66.90
2017-12-24T20:15:19.930Z,66.70
2017-12-24T20:17:48.430Z,66.70
2017-12-24T20:20:16.689Z,66.70
2017-12-24T20:22:45.070Z,66.60
2017-12-24T20:25:13.550Z,67.00
2017-12-24T20:27:41.710Z,67.60
2017-12-24T20:30:10.070Z,67.70
2017-12-24T20:32:38.370Z,67.90
2017-12-24T20:35:06.650Z,67.80
2017-12-24T20:37:34.930Z,67.70
2017-12-24T20:40:03.390Z,67.90
2017-12-24T20:42:31.889Z,68.20
2017-12-24T20:45:00.170Z,68.40
2017-12-24T20:47:28.329Z,68.60
2017-12-24T20:49:56.810Z,68.70
2017-12-24T20:52:25.049Z,68.50
2017-12-24T20:54:53.351Z,68.60
2017-12-24T20:57:21.510Z,68.40
2017-12-24T20:59:49.609Z,68.30
2017-12-24T21:02:18.052Z,68.00
2017-12-24T21:04:46.152Z,68.00
2017-12-24T21:07:14.330Z,67.90
2017-12-24T21:09:42.411Z,67.40
2017-12-24T21:12:10.789Z,68.00
2017-12-24T21:14:39.130Z,67.60
2017-12-24T21:17:07.570Z,68.50
2017-12-24T21:19:36.751Z,68.20
2017-12-24T21:22:05.830Z,68.40
2017-12-24T21:24:34.311Z,68.40
2017-12-24T21:27:02.770Z,68.40
2017-12-24T21:29:31.250Z,68.50
2017-12-24T21:31:59.951Z,68.40
2017-12-24T21:34:28.329Z,68.50
2017-12-24T21:36:56.830Z,68.70
2017-12-24T21:39:26.209Z,68.70
2017-12-24T21:41:54.471Z,68.70
2017-12-24T21:44:23.190Z,68.60
2017-12-24T21:46:52.392Z,68.50
2017-12-24T21:49:21.650Z,68.20
2017-12-24T21:51:50.030Z,68.20
2017-12-24T21:54:18.781Z,68.60
2017-12-24T21:56:47.238Z,68.60
2017-12-24T21:59:16.192Z,68.90
2017-12-24T22:01:44.592Z,68.90
2017-12-24T22:04:13.590Z,69.10
2017-12-24T22:06:42.431Z,69.10
2017-12-24T22:09:10.532Z,69.00
2017-12-24T22:11:39.710Z,69.10
2017-12-24T22:14:07.851Z,69.10
2017-12-24T22:16:36.291Z,69.10
2017-12-24T22:19:04.451Z,69.10
2017-12-24T22:21:32.731Z,69.00
2017-12-24T22:24:00.997Z,68.90
2017-12-24T22:26:29.271Z,69.00
2017-12-24T22:28:57.659Z,68.80
2017-12-24T22:31:25.910Z,69.00
2017-12-24T22:33:54.097Z,68.80
2017-12-24T22:36:22.270Z,69.10
2017-12-24T22:38:50.450Z,69.10
2017-12-24T22:41:18.978Z,69.10
2017-12-24T22:43:47.430Z,68.90
2017-12-24T22:46:16.650Z,68.40
2017-12-24T22:48:45.150Z,68.40
2017-12-24T22:51:13.670Z,68.50
2017-12-24T22:53:41.830Z,68.60
2017-12-24T22:56:10.510Z,68.80
2017-12-24T22:58:39.070Z,68.40
2017-12-24T23:01:07.391Z,68.20
2017-12-24T23:03:35.610Z,68.50
2017-12-24T23:06:03.958Z,68.40
2017-12-24T23:08:33.230Z,68.40
2017-12-24T23:11:01.510Z,68.30
2017-12-24T23:13:29.891Z,68.50
2017-12-24T23:15:58.025Z,68.60
2017-12-24T23:18:26.544Z,68.50
2017-12-24T23:20:55.051Z,68.60
2017-12-24T23:23:24.324Z,68.60
2017-12-24T23:25:52.765Z,68.50
2017-12-24T23:28:21.286Z,68.70
2017-12-24T23:30:49.785Z,68.70
2017-12-24T23:33:18.824Z,68.40
2017-12-24T23:35:47.445Z,68.40
2017-12-24T23:38:15.804Z,68.60
2017-12-24T23:40:43.979Z,68.60
2017-12-24T23:43:12.126Z,68.40
2017-12-24T23:45:40.888Z,68.40
2017-12-24T23:48:09.126Z,68.50
2017-12-24T23:50:37.506Z,68.30
2017-12-24T23:53:05.786Z,68.00
2017-12-24T23:55:34.026Z,68.20
2017-12-24T23:58:02.386Z,68.20
